createdAt,value
2023-10-22T00:00:09.629Z,99583.44
2023-10-22T00:02:39.852Z,99585.81
2023-10-22T00:05:07.864Z,99585.03
2023-10-22T00:07:34.929Z,99580.28
2023-10-22T00:10:02.397Z,99580.28
2023-10-22T00:12:29.550Z,99577.50
2023-10-22T00:14:56.716Z,99580.66
2023-10-22T00:17:23.718Z,99591.72
2023-10-22T00:19:50.610Z,99588.59
2023-10-22T00:22:18.187Z,99579.84
2023-10-22T00:24:45.351Z,99586.16
2023-10-22T00:27:12.833Z,99583.00
2023-10-22T00:29:39.933Z,99584.94
2023-10-22T00:32:07.442Z,99578.97
2023-10-22T00:34:35.869Z,99575.06
2023-10-22T00:37:04.192Z,99580.16
2023-10-22T00:39:31.250Z,99576.63
2023-10-22T00:41:58.443Z,99578.63
2023-10-22T00:44:25.577Z,99579.41
2023-10-22T00:46:53.048Z,99573.06
2023-10-22T00:49:20.314Z,99578.63
2023-10-22T00:51:49.329Z,99583.28
2023-10-22T00:54:19.921Z,99588.75
2023-10-22T00:56:49.098Z,99582.03
2023-10-22T00:59:16.261Z,99585.13
2023-10-22T01:01:45.942Z,99576.03
2023-10-22T01:04:13.861Z,99582.00
2023-10-22T01:06:41.629Z,99599.84
2023-10-22T01:09:11.458Z,99595.94
2023-10-22T01:11:57.672Z,99593.66
2023-10-22T01:14:25.644Z,99588.25
2023-10-22T01:16:52.847Z,99580.44
2023-10-22T01:19:19.834Z,99589.63
2023-10-22T01:21:46.748Z,99594.81
2023-10-22T01:24:13.748Z,99586.94
2023-10-22T01:26:44.921Z,99576.34
2023-10-22T01:29:12.466Z,99589.41
2023-10-22T01:31:39.783Z,99587.44
2023-10-22T01:34:07.283Z,99583.13
2023-10-22T01:36:34.327Z,99578.41
2023-10-22T01:39:01.396Z,99581.19
2023-10-22T01:41:29.258Z,99581.56
2023-10-22T01:43:57.555Z,99578.84
2023-10-22T01:46:24.588Z,99578.06
2023-10-22T01:48:51.860Z,99584.00
2023-10-22T01:51:18.923Z,99583.22
2023-10-22T01:53:46.095Z,99577.69
2023-10-22T01:56:13.158Z,99578.47
2023-10-22T01:58:40.545Z,99574.13
2023-10-22T02:01:07.923Z,99582.44
2023-10-22T02:03:38.898Z,99572.16
2023-10-22T02:06:13.608Z,99574.13
2023-10-22T02:08:41.798Z,99571.38
2023-10-22T02:11:09.228Z,99575.69
2023-10-22T02:13:36.324Z,99574.50
2023-10-22T02:16:03.601Z,99568.19
2023-10-22T02:18:30.847Z,99578.44
2023-10-22T02:21:00.611Z,99571.75
2023-10-22T02:23:28.756Z,99566.22
2023-10-22T02:25:56.202Z,99577.69
2023-10-22T02:28:23.406Z,99574.94
2023-10-22T02:30:50.491Z,99576.50
2023-10-22T02:33:18.115Z,99574.16
2023-10-22T02:35:46.296Z,99575.69
2023-10-22T02:38:16.721Z,99576.13
2023-10-22T02:40:44.885Z,99584.41
2023-10-22T02:43:13.028Z,99583.16
2023-10-22T02:45:50.186Z,99585.16
2023-10-22T02:48:17.223Z,99579.66
2023-10-22T02:50:44.295Z,99581.22
2023-10-22T02:53:11.641Z,99587.16
2023-10-22T02:55:38.591Z,99583.16
2023-10-22T02:58:05.905Z,99583.16
2023-10-22T03:00:37.079Z,99590.28
2023-10-22T03:03:05.782Z,99590.69
2023-10-22T03:05:37.892Z,99593.06
2023-10-22T03:08:05.562Z,99595.00
2023-10-22T03:10:36.705Z,99595.81
2023-10-22T03:13:03.857Z,99596.59
2023-10-22T03:15:30.823Z,99594.59
2023-10-22T03:17:58.606Z,99594.59
2023-10-22T03:20:26.429Z,99602.50
2023-10-22T03:22:54.812Z,99606.06
2023-10-22T03:25:23.220Z,99596.19
2023-10-22T03:27:50.823Z,99604.47
2023-10-22T03:30:18.658Z,99603.31
2023-10-22T03:32:46.608Z,99608.41
2023-10-22T03:35:14.500Z,99611.59
2023-10-22T03:37:42.611Z,99607.25
2023-10-22T03:40:11.323Z,99618.69
2023-10-22T03:42:38.697Z,99626.97
2023-10-22T03:45:07.691Z,99625.00
2023-10-22T03:47:34.774Z,99628.13
2023-10-22T03:50:01.658Z,99628.53
2023-10-22T03:52:30.165Z,99630.53
2023-10-22T03:54:58.333Z,99634.44
2023-10-22T03:57:25.461Z,99628.91
2023-10-22T03:59:52.577Z,99639.97
2023-10-22T04:02:20.030Z,99642.72
2023-10-22T04:04:47.124Z,99636.03
2023-10-22T04:07:14.187Z,99641.56
2023-10-22T04:09:41.171Z,99645.13
2023-10-22T04:12:09.566Z,99643.09
2023-10-22T04:14:36.807Z,99654.56
2023-10-22T04:17:04.308Z,99655.38
2023-10-22T04:19:31.177Z,99657.34
2023-10-22T04:21:58.095Z,99665.66
2023-10-22T04:24:25.047Z,99661.66
2023-10-22T04:26:51.921Z,99660.47
2023-10-22T04:29:18.779Z,99663.25
2023-10-22T04:31:45.804Z,99666.75
2023-10-22T04:34:12.829Z,99673.06
2023-10-22T04:36:39.704Z,99675.47
2023-10-22T04:39:06.662Z,99684.16
2023-10-22T04:41:33.694Z,99677.44
2023-10-22T04:44:00.691Z,99685.28
2023-10-22T04:46:27.867Z,99688.84
2023-10-22T04:48:55.656Z,99692.00
2023-10-22T04:51:23.050Z,99698.31
2023-10-22T04:53:50.933Z,99695.56
2023-10-22T04:56:17.830Z,99699.50
2023-10-22T04:58:44.856Z,99706.97
2023-10-22T05:01:12.712Z,99710.13
2023-10-22T05:03:40.214Z,99710.88
2023-10-22T05:06:10.503Z,99717.59
2023-10-22T05:08:39.800Z,99714.81
2023-10-22T05:11:07.428Z,99725.06
2023-10-22T05:13:34.584Z,99725.44
2023-10-22T05:16:01.783Z,99727.41
2023-10-22T05:18:28.972Z,99735.72
2023-10-22T05:21:03.569Z,99738.47
2023-10-22T05:23:30.781Z,99744.78
2023-10-22T05:26:09.036Z,99752.28
2023-10-22T05:28:36.370Z,99757.41
2023-10-22T05:31:16.118Z,99768.88
2023-10-22T05:33:43.983Z,99785.88
2023-10-22T05:36:18.356Z,99802.88
2023-10-22T05:38:45.725Z,99801.34
2023-10-22T05:41:19.457Z,99806.16
2023-10-22T05:43:46.469Z,99829.56
2023-10-22T05:46:13.500Z,99837.16
2023-10-22T05:48:41.775Z,99840.69
2023-10-22T05:51:08.959Z,99856.13
2023-10-22T05:53:35.947Z,99859.69
2023-10-22T05:56:02.816Z,99868.78
2023-10-22T05:58:30.311Z,99879.47
2023-10-22T06:00:57.696Z,99886.97
2023-10-22T06:03:24.766Z,99901.59
2023-10-22T06:05:52.141Z,99912.66
2023-10-22T06:08:19.092Z,99921.34
2023-10-22T06:10:49.380Z,99919.78
2023-10-22T06:13:16.420Z,99930.84
2023-10-22T06:15:45.758Z,99943.91
2023-10-22T06:18:13.572Z,99956.16
2023-10-22T06:20:40.969Z,99954.56
2023-10-22T06:23:08.256Z,99971.16
2023-10-22T06:25:35.307Z,99978.25
2023-10-22T06:28:02.569Z,99990.13
2023-10-22T06:30:30.005Z,99993.28
2023-10-22T06:32:58.100Z,100007.50
2023-10-22T06:35:29.030Z,100005.94
2023-10-22T06:37:56.232Z,100019.38
2023-10-22T06:40:24.175Z,100031.63
2023-10-22T06:42:51.861Z,100030.81
2023-10-22T06:45:20.739Z,100034.41
2023-10-22T06:47:48.241Z,100040.31
2023-10-22T06:50:16.454Z,100048.59
2023-10-22T06:52:46.528Z,100051.78
2023-10-22T06:55:13.546Z,100047.03
2023-10-22T06:57:41.018Z,100065.59
2023-10-22T07:00:11.318Z,100058.88
2023-10-22T07:02:39.217Z,100073.50
2023-10-22T07:05:08.866Z,100078.63
2023-10-22T07:07:35.833Z,100086.56
2023-10-22T07:10:02.806Z,100102.34
2023-10-22T07:12:30.112Z,100102.38
2023-10-22T07:14:57.153Z,100110.25
2023-10-22T07:17:24.063Z,100096.84
2023-10-22T07:19:50.992Z,100105.53
2023-10-22T07:22:17.857Z,100113.44
2023-10-22T07:24:46.905Z,100120.56
2023-10-22T07:27:13.931Z,100122.16
2023-10-22T07:29:40.935Z,100131.63
2023-10-22T07:32:08.163Z,100134.78
2023-10-22T07:34:35.159Z,100145.06
2023-10-22T07:37:02.030Z,100151.00
2023-10-22T07:39:28.964Z,100163.25
2023-10-22T07:41:56.041Z,100156.94
2023-10-22T07:44:22.954Z,100160.09
2023-10-22T07:46:49.854Z,100160.50
2023-10-22T07:49:16.983Z,100164.06
2023-10-22T07:51:43.946Z,100170.06
2023-10-22T07:54:10.924Z,100177.56
2023-10-22T07:56:37.955Z,100169.25
2023-10-22T07:59:05.084Z,100183.91
2023-10-22T08:01:32.268Z,100192.63
2023-10-22T08:03:59.437Z,100194.22
2023-10-22T08:06:26.466Z,100208.47
2023-10-22T08:08:55.941Z,100206.47
2023-10-22T08:11:23.265Z,100210.44
2023-10-22T08:13:50.242Z,100218.78
2023-10-22T08:16:17.365Z,100224.72
2023-10-22T08:18:45.380Z,100230.63
2023-10-22T08:21:12.593Z,100236.97
2023-10-22T08:23:40.327Z,100231.03
2023-10-22T08:26:07.648Z,100241.75
2023-10-22T08:28:36.453Z,100242.53
2023-10-22T08:31:03.869Z,100238.56
2023-10-22T08:33:32.778Z,100254.81
2023-10-22T08:36:08.595Z,100252.81
2023-10-22T08:38:35.949Z,100252.00
2023-10-22T08:41:03.758Z,100257.94
2023-10-22T08:43:33.619Z,100255.97
2023-10-22T08:46:01.930Z,100269.44
2023-10-22T08:48:32.379Z,100265.88
2023-10-22T08:51:01.869Z,100269.44
2023-10-22T08:53:28.931Z,100284.09
2023-10-22T08:55:57.884Z,100282.50
2023-10-22T08:58:24.974Z,100295.59
2023-10-22T09:00:51.909Z,100301.16
2023-10-22T09:03:20.804Z,100311.44
2023-10-22T09:05:48.987Z,100305.09
2023-10-22T09:08:16.691Z,100308.66
2023-10-22T09:10:44.337Z,100318.97
2023-10-22T09:13:12.769Z,100324.09
2023-10-22T09:15:40.767Z,100324.50
2023-10-22T09:18:08.330Z,100329.66
2023-10-22T09:20:35.697Z,100339.16
2023-10-22T09:23:21.521Z,100334.38
2023-10-22T09:25:53.752Z,100346.69
2023-10-22T09:28:28.545Z,100342.34
2023-10-22T09:31:02.082Z,100355.81
2023-10-22T09:33:45.503Z,100359.38
2023-10-22T09:36:14.111Z,100363.75
2023-10-22T09:38:47.716Z,100365.69
2023-10-22T09:41:36.202Z,100370.84
2023-10-22T09:44:04.242Z,100369.22
2023-10-22T09:46:33.793Z,100375.16
2023-10-22T09:49:05.946Z,100382.66
2023-10-22T09:51:35.707Z,100392.16
2023-10-22T09:54:07.947Z,100386.97
2023-10-22T09:56:52.924Z,100390.94
2023-10-22T09:59:23.853Z,100402.03
2023-10-22T10:01:52.408Z,100408.34
2023-10-22T10:04:22.262Z,100409.97
2023-10-22T10:06:51.067Z,100414.38
2023-10-22T10:09:18.403Z,100410.03
2023-10-22T10:11:46.036Z,100417.19
2023-10-22T10:14:40.595Z,100429.44
2023-10-22T10:17:08.393Z,100418.38
2023-10-22T10:19:35.288Z,100437.41
2023-10-22T10:22:02.441Z,100435.06
2023-10-22T10:24:31.181Z,100445.78
2023-10-22T10:26:58.468Z,100445.00
2023-10-22T10:29:33.534Z,100443.81
2023-10-22T10:32:16.502Z,100455.69
2023-10-22T10:34:53.701Z,100458.03
2023-10-22T10:37:22.932Z,100452.50
2023-10-22T10:39:54.793Z,100463.56
2023-10-22T10:42:30.934Z,100462.81
2023-10-22T10:44:58.631Z,100479.06
2023-10-22T10:47:25.713Z,100475.50
2023-10-22T10:49:59.073Z,100470.28
2023-10-22T10:52:26.064Z,100480.56
2023-10-22T10:55:22.014Z,100485.75
2023-10-22T10:57:54.300Z,100486.53
2023-10-22T11:00:29.528Z,100490.16
2023-10-22T11:02:58.992Z,100494.94
2023-10-22T11:05:41.348Z,100500.50
2023-10-22T11:08:23.422Z,100494.94
2023-10-22T11:10:50.758Z,100501.69
2023-10-22T11:13:27.173Z,100510.00
2023-10-22T11:15:55.336Z,100500.09
2023-10-22T11:18:22.308Z,100517.56
2023-10-22T11:20:58.265Z,100515.16
2023-10-22T11:23:25.430Z,100513.94
2023-10-22T11:25:52.453Z,100520.28
2023-10-22T11:28:19.596Z,100524.66
2023-10-22T11:30:46.916Z,100532.63
2023-10-22T11:33:29.331Z,100524.28
2023-10-22T11:36:00.242Z,100531.03
2023-10-22T11:38:27.766Z,100540.56
2023-10-22T11:40:56.688Z,100530.66
2023-10-22T11:43:27.717Z,100531.84
2023-10-22T11:45:56.558Z,100534.63
2023-10-22T11:48:25.821Z,100527.84
2023-10-22T11:51:00.395Z,100535.00
2023-10-22T11:53:43.600Z,100537.00
2023-10-22T11:56:11.069Z,100549.66
2023-10-22T11:58:38.007Z,100550.81
2023-10-22T12:01:04.972Z,100541.31
2023-10-22T12:03:32.177Z,100540.88
2023-10-22T12:05:59.273Z,100547.22
2023-10-22T12:08:26.178Z,100552.78
2023-10-22T12:10:53.173Z,100550.41
2023-10-22T12:13:20.108Z,100552.38
2023-10-22T12:15:48.551Z,100550.81
2023-10-22T12:18:15.724Z,100561.13
2023-10-22T12:20:43.076Z,100567.88
2023-10-22T12:23:12.575Z,100573.81
2023-10-22T12:25:40.600Z,100582.50
2023-10-22T12:28:07.718Z,100588.81
2023-10-22T12:30:35.860Z,100583.28
2023-10-22T12:33:03.271Z,100598.72
2023-10-22T12:35:31.175Z,100597.91
2023-10-22T12:37:58.201Z,100606.59
2023-10-22T12:40:25.273Z,100610.97
2023-10-22T12:42:52.207Z,100616.16
2023-10-22T12:45:19.157Z,100617.69
2023-10-22T12:47:46.148Z,100622.06
2023-10-22T12:50:13.103Z,100626.00
2023-10-22T12:52:40.065Z,100626.47
2023-10-22T12:55:08.353Z,100631.25
2023-10-22T12:57:35.362Z,100636.44
2023-10-22T13:00:07.334Z,100636.06
2023-10-22T13:02:35.674Z,100644.38
2023-10-22T13:05:02.847Z,100646.72
2023-10-22T13:07:29.664Z,100648.75
2023-10-22T13:09:56.618Z,100648.38
2023-10-22T13:12:23.610Z,100651.97
2023-10-22T13:14:51.338Z,100661.09
2023-10-22T13:17:18.474Z,100655.59
2023-10-22T13:19:46.234Z,100654.84
2023-10-22T13:22:13.451Z,100662.34
2023-10-22T13:24:41.012Z,100660.34
2023-10-22T13:27:08.327Z,100666.31
2023-10-22T13:29:35.287Z,100669.81
2023-10-22T13:32:02.313Z,100671.81
2023-10-22T13:34:29.969Z,100669.03
2023-10-22T13:36:56.829Z,100678.56
2023-10-22T13:39:23.933Z,100679.78
2023-10-22T13:41:50.892Z,100682.19
2023-10-22T13:44:17.814Z,100687.38
2023-10-22T13:46:44.824Z,100692.13
2023-10-22T13:49:12.280Z,100694.53
2023-10-22T13:51:39.134Z,100695.34
2023-10-22T13:54:06.507Z,100697.28
2023-10-22T13:56:33.755Z,100700.41
2023-10-22T13:59:01.566Z,100696.03
2023-10-22T14:01:28.596Z,100699.19
2023-10-22T14:03:55.871Z,100705.16
2023-10-22T14:06:23.588Z,100704.69
2023-10-22T14:08:50.804Z,100699.56
2023-10-22T14:11:20.723Z,100713.44
2023-10-22T14:13:47.616Z,100717.75
2023-10-22T14:16:15.052Z,100718.91
2023-10-22T14:18:42.340Z,100720.84
2023-10-22T14:21:10.214Z,100724.34
2023-10-22T14:23:38.667Z,100721.16
2023-10-22T14:26:05.952Z,100726.69
2023-10-22T14:28:33.093Z,100727.81
2023-10-22T14:31:00.304Z,100725.41
2023-10-22T14:33:27.391Z,100732.53
2023-10-22T14:36:01.201Z,100736.44
2023-10-22T14:38:28.912Z,100735.66
2023-10-22T14:40:56.285Z,100740.38
2023-10-22T14:43:24.026Z,100742.31
2023-10-22T14:45:51.142Z,100746.66
2023-10-22T14:48:18.165Z,100750.59
2023-10-22T14:50:58.699Z,100748.59
2023-10-22T14:53:25.711Z,100758.84
2023-10-22T14:55:57.126Z,100752.81
2023-10-22T14:58:24.302Z,100758.31
2023-10-22T15:00:51.330Z,100765.41
2023-10-22T15:03:18.417Z,100759.00
2023-10-22T15:05:46.582Z,100761.75
2023-10-22T15:08:13.544Z,100768.81
2023-10-22T15:10:44.530Z,100764.41
2023-10-22T15:13:12.070Z,100767.13
2023-10-22T15:15:43.139Z,100774.16
2023-10-22T15:18:11.486Z,100773.31
2023-10-22T15:20:47.469Z,100776.41
2023-10-22T15:23:16.141Z,100777.50
2023-10-22T15:25:47.662Z,100790.00
2023-10-22T15:28:15.076Z,100782.31
2023-10-22T15:30:42.559Z,100786.16
2023-10-22T15:33:10.083Z,100791.59
2023-10-22T15:35:37.593Z,100789.91
2023-10-22T15:38:07.042Z,100797.28
2023-10-22T15:40:34.260Z,100798.03
2023-10-22T15:43:01.866Z,100801.16
2023-10-22T15:45:31.543Z,100802.34
2023-10-22T15:48:00.222Z,100802.28
2023-10-22T15:50:28.685Z,100802.16
2023-10-22T15:52:58.636Z,100803.59
2023-10-22T15:55:25.652Z,100804.25
2023-10-22T15:57:56.491Z,100809.59
2023-10-22T16:00:23.924Z,100805.38
2023-10-22T16:02:51.249Z,100809.13
2023-10-22T16:05:18.856Z,100808.13
2023-10-22T16:07:45.953Z,100807.13
2023-10-22T16:10:13.823Z,100812.94
2023-10-22T16:12:42.123Z,100813.19
2023-10-22T16:15:13.111Z,100830.69
2023-10-22T16:17:42.011Z,100828.88
2023-10-22T16:20:10.554Z,100833.00
2023-10-22T16:22:37.521Z,100837.09
2023-10-22T16:25:04.971Z,100835.72
2023-10-22T16:27:32.640Z,100840.28
2023-10-22T16:29:59.811Z,100846.06
2023-10-22T16:32:27.102Z,100844.75
2023-10-22T16:34:54.154Z,100842.28
2023-10-22T16:37:20.995Z,100849.22
2023-10-22T16:39:47.885Z,100859.38
2023-10-22T16:42:14.987Z,100854.47
2023-10-22T16:44:42.097Z,100861.88
2023-10-22T16:47:09.159Z,100863.22
2023-10-22T16:49:36.256Z,100862.78
2023-10-22T16:52:03.762Z,100861.47
2023-10-22T16:54:30.776Z,100860.94
2023-10-22T16:56:58.756Z,100865.13
2023-10-22T16:59:26.803Z,100868.13
2023-10-22T17:01:53.772Z,100869.50
2023-10-22T17:04:20.827Z,100868.63
2023-10-22T17:06:47.879Z,100877.41
2023-10-22T17:09:14.845Z,100878.47
2023-10-22T17:11:42.104Z,100890.13
2023-10-22T17:14:09.561Z,100903.06
2023-10-22T17:16:36.484Z,100889.91
2023-10-22T17:19:04.206Z,100900.38
2023-10-22T17:21:33.755Z,100901.53
2023-10-22T17:24:01.396Z,100906.69
2023-10-22T17:26:28.453Z,100906.31
2023-10-22T17:28:55.551Z,100913.44
2023-10-22T17:31:23.532Z,100915.41
2023-10-22T17:34:03.369Z,100912.53
2023-10-22T17:36:30.932Z,100918.75
2023-10-22T17:38:57.895Z,100925.75
2023-10-22T17:41:24.748Z,100927.72
2023-10-22T17:43:51.647Z,100929.31
2023-10-22T17:46:18.707Z,100931.81
2023-10-22T17:48:47.558Z,100930.41
2023-10-22T17:51:14.995Z,100936.94
2023-10-22T17:53:44.756Z,100935.84
2023-10-22T17:56:12.347Z,100938.22
2023-10-22T17:58:39.503Z,100944.00
2023-10-22T18:01:06.885Z,100951.31
2023-10-22T18:03:44.856Z,100945.03
2023-10-22T18:06:12.304Z,100955.41
2023-10-22T18:08:39.184Z,100961.63
2023-10-22T18:11:06.132Z,100956.75
2023-10-22T18:13:33.086Z,100967.66
2023-10-22T18:16:00.381Z,100965.22
2023-10-22T18:18:27.797Z,100969.22
2023-10-22T18:21:02.067Z,100975.25
2023-10-22T18:23:29.097Z,100978.41
2023-10-22T18:26:03.748Z,100977.09
2023-10-22T18:28:31.910Z,100981.50
2023-10-22T18:30:58.897Z,100978.91
2023-10-22T18:33:26.294Z,100981.44
2023-10-22T18:35:53.467Z,100987.53
2023-10-22T18:38:20.699Z,100984.22
2023-10-22T18:40:48.036Z,100979.53
2023-10-22T18:43:21.690Z,100982.63
2023-10-22T18:45:50.857Z,100987.56
2023-10-22T18:48:19.325Z,100984.03
2023-10-22T18:50:56.877Z,100992.16
2023-10-22T18:53:23.996Z,100998.09
2023-10-22T18:55:56.641Z,100992.59
2023-10-22T18:58:23.814Z,100999.59
2023-10-22T19:00:50.975Z,101003.50
2023-10-22T19:03:18.226Z,101003.97
2023-10-22T19:05:45.490Z,101007.63
2023-10-22T19:08:13.500Z,101006.94
2023-10-22T19:10:41.680Z,101004.41
2023-10-22T19:13:09.447Z,101008.41
2023-10-22T19:15:38.518Z,101015.16
2023-10-22T19:18:07.355Z,101016.88
2023-10-22T19:20:35.705Z,101022.38
2023-10-22T19:23:07.926Z,101021.03
2023-10-22T19:25:38.921Z,101025.59
2023-10-22T19:28:06.154Z,101018.84
2023-10-22T19:30:33.314Z,101034.91
2023-10-22T19:33:00.702Z,101043.84
2023-10-22T19:35:30.259Z,101042.94
2023-10-22T19:37:57.397Z,101041.31
2023-10-22T19:40:25.070Z,101041.78
2023-10-22T19:42:52.050Z,101042.50
2023-10-22T19:45:20.478Z,101046.69
2023-10-22T19:47:47.576Z,101052.91
2023-10-22T19:50:15.027Z,101059.69
2023-10-22T19:52:42.187Z,101057.38
2023-10-22T19:55:10.007Z,101061.28
2023-10-22T19:57:37.848Z,101052.56
2023-10-22T20:00:07.426Z,101057.03
2023-10-22T20:02:40.223Z,101061.06
2023-10-22T20:05:08.020Z,101064.25
2023-10-22T20:07:35.548Z,101059.88
2023-10-22T20:10:02.852Z,101064.59
2023-10-22T20:12:30.025Z,101070.22
2023-10-22T20:14:57.087Z,101067.00
2023-10-22T20:17:24.075Z,101069.44
2023-10-22T20:19:50.912Z,101070.00
2023-10-22T20:22:17.788Z,101072.16
2023-10-22T20:24:44.949Z,101076.38
2023-10-22T20:27:12.208Z,101072.84
2023-10-22T20:29:39.565Z,101075.81
2023-10-22T20:32:06.765Z,101079.78
2023-10-22T20:34:33.724Z,101079.22
2023-10-22T20:37:03.908Z,101075.88
2023-10-22T20:39:31.329Z,101084.00
2023-10-22T20:41:58.488Z,101079.19
2023-10-22T20:44:26.095Z,101083.09
2023-10-22T20:46:53.273Z,101086.63
2023-10-22T20:49:20.618Z,101090.84
2023-10-22T20:51:47.514Z,101100.59
2023-10-22T21:01:22.746Z,101097.78
2023-10-22T21:03:50.175Z,101101.22
2023-10-22T21:06:17.790Z,101099.94
2023-10-22T21:08:45.792Z,101097.88
2023-10-22T21:11:13.484Z,101097.88
2023-10-22T21:13:40.750Z,101113.69
2023-10-22T21:16:11.806Z,101112.56
2023-10-22T21:18:40.768Z,101116.44
2023-10-22T21:21:07.837Z,101108.19
2023-10-22T21:23:38.040Z,101111.28
2023-10-22T21:26:06.469Z,101115.16
2023-10-22T21:28:33.883Z,101111.63
2023-10-22T21:31:01.058Z,101115.97
2023-10-22T21:33:28.586Z,101116.44
2023-10-22T21:36:05.298Z,101116.81
2023-10-22T21:38:33.084Z,101119.00
2023-10-22T21:41:00.850Z,101111.25
2023-10-22T21:43:28.246Z,101117.66
2023-10-22T21:46:10.917Z,101121.66
2023-10-22T21:48:39.228Z,101128.25
2023-10-22T21:51:06.789Z,101124.34
2023-10-22T21:53:33.958Z,101124.81
2023-10-22T21:56:01.159Z,101129.28
2023-10-22T21:58:28.356Z,101135.03
2023-10-22T22:00:56.671Z,101140.97
2023-10-22T22:03:24.188Z,101134.22
2023-10-22T22:05:51.307Z,101139.59
2023-10-22T22:08:18.238Z,101139.38
2023-10-22T22:10:45.464Z,101142.66
2023-10-22T22:13:12.422Z,101148.84
2023-10-22T22:15:39.498Z,101142.38
2023-10-22T22:18:06.601Z,101143.44
2023-10-22T22:20:53.641Z,101151.41
2023-10-22T22:23:21.389Z,101152.75
2023-10-22T22:25:48.411Z,101141.63
2023-10-22T22:28:15.350Z,101147.91
2023-10-22T22:30:42.773Z,101152.28
2023-10-22T22:33:10.281Z,101158.03
2023-10-22T22:35:37.548Z,101150.47
2023-10-22T22:38:04.507Z,101159.59
2023-10-22T22:40:31.411Z,101156.25
2023-10-22T22:42:58.335Z,101166.38
2023-10-22T22:45:26.080Z,101164.31
2023-10-22T22:47:53.470Z,101171.16
2023-10-22T22:50:20.659Z,101172.31
2023-10-22T22:52:47.623Z,101168.63
2023-10-22T22:55:14.530Z,101170.91
2023-10-22T22:57:41.917Z,101175.75
2023-10-22T23:00:09.613Z,101180.78
2023-10-22T23:02:36.452Z,101176.09
2023-10-22T23:05:03.675Z,101179.81
2023-10-22T23:07:30.643Z,101185.75
2023-10-22T23:09:57.637Z,101179.81
2023-10-22T23:12:24.849Z,101188.81
2023-10-22T23:14:52.184Z,101185.75
2023-10-22T23:17:19.151Z,101189.44
2023-10-22T23:19:46.263Z,101189.91
2023-10-22T23:22:13.578Z,101191.31
2023-10-22T23:24:40.823Z,101187.44
2023-10-22T23:27:07.839Z,101190.72
2023-10-22T23:29:34.727Z,101187.84
2023-10-22T23:32:01.774Z,101190.91
2023-10-22T23:34:28.696Z,101187.84
2023-10-22T23:36:55.755Z,101198.28
2023-10-22T23:39:22.698Z,101196.34
2023-10-22T23:41:49.594Z,101202.03
2023-10-22T23:44:16.799Z,101208.34
2023-10-22T23:46:43.767Z,101208.84
2023-10-22T23:49:10.839Z,101209.53
2023-10-22T23:51:37.816Z,101217.28
2023-10-22T23:54:04.727Z,101215.69
2023-10-22T23:56:31.717Z,101217.97
2023-10-22T23:58:58.615Z,101214.09
